Time;durP1;ratioP1;P1;durP2;ratioP2;P2;SDS_P1;SDS_P2;PMS_P1;PMS_P2;Temp;Humidity;BMP_temperature;BMP_pressure;BME280_temperature;BME280_humidity;BME280_pressure;Samples;Min_cycle;Max_cycle;Signal;HPM_P1;HPM_P2
2022/03/21 00:02:42;;;;;;;;;56.60;43.80;;;;;8.05;26.39;101146.84;6313372;27;97334;-68
2022/03/21 00:05:48;;;;;;;;;54.20;43.00;;;;;8.02;26.41;101149.81;6312885;27;97693;-68
2022/03/21 00:08:51;;;;;;;;;53.00;41.60;;;;;7.99;26.37;101151.00;6313053;27;97416;-69
2022/03/21 00:11:54;;;;;;;;;53.00;42.00;;;;;8.00;26.45;101155.38;6291635;27;97760;-68
2022/03/21 00:14:57;;;;;;;;;53.60;43.00;;;;;7.93;26.74;101142.66;6304556;27;97625;-69
2022/03/21 00:18:02;;;;;;;;;55.00;42.60;;;;;7.81;27.24;101144.72;6311503;27;97659;-69
2022/03/21 00:21:07;;;;;;;;;53.80;42.20;;;;;7.71;27.27;101143.94;6307087;27;96779;-68
2022/03/21 00:24:10;;;;;;;;;49.00;41.00;;;;;7.62;27.39;101137.63;6302811;27;96668;-68
2022/03/21 00:27:13;;;;;;;;;54.00;42.00;;;;;7.61;27.32;101140.44;6312237;27;96685;-68
2022/03/21 00:30:28;;;;;;;;;51.50;41.75;;;;;7.63;27.31;101135.75;6292435;27;96653;-68
2022/03/21 00:33:32;;;;;;;;;54.00;42.50;;;;;7.30;27.77;101103.13;6311960;27;97210;-68
2022/03/21 00:36:37;;;;;;;;;53.00;42.00;;;;;7.50;27.74;101135.25;6310541;27;97387;-68
2022/03/21 00:39:55;;;;;;;;;53.00;43.00;;;;;7.44;27.75;101125.94;6312350;27;96430;-68
2022/03/21 00:42:59;;;;;;;;;52.50;43.00;;;;;7.31;27.94;101125.44;6294132;27;96903;-68
2022/03/21 00:46:04;;;;;;;;;51.80;42.00;;;;;7.23;28.27;101123.47;6294037;27;98618;-68
2022/03/21 00:49:08;;;;;;;;;57.00;43.00;;;;;7.25;28.16;101129.53;6293603;27;97203;-68
2022/03/21 00:52:13;;;;;;;;;55.80;43.60;;;;;7.24;28.51;101127.00;6274590;27;99585;-68
2022/03/21 00:55:18;;;;;;;;;51.60;41.60;;;;;7.19;28.52;101123.91;6297907;27;97035;-68
2022/03/21 00:58:22;;;;;;;;;58.20;45.00;;;;;7.18;28.26;101125.75;6304657;27;97113;-68
2022/03/21 01:01:25;;;;;;;;;55.00;42.20;;;;;7.27;28.15;101122.22;6313866;27;97914;-68
2022/03/21 01:04:29;;;;;;;;;56.00;43.00;;;;;7.40;27.85;101121.88;6302456;27;97200;-68
2022/03/21 01:07:34;;;;;;;;;57.40;45.00;;;;;7.47;27.61;101127.50;6306181;27;96518;-68
2022/03/21 01:10:38;;;;;;;;;57.75;45.00;;;;;7.44;27.71;101119.72;6311761;27;97478;-67
2022/03/21 01:13:42;;;;;;;;;57.50;45.50;;;;;7.35;27.90;101118.78;6303086;27;96999;-67
2022/03/21 01:16:46;;;;;;;;;55.00;44.00;;;;;7.35;28.02;101122.31;6303244;27;98242;-68
2022/03/21 01:19:49;;;;;;;;;62.25;47.75;;;;;7.34;28.05;101111.72;6291163;27;98424;-67
2022/03/21 01:22:54;;;;;;;;;59.00;45.00;;;;;7.35;27.91;101105.34;6309386;27;96920;-68
2022/03/21 01:25:58;;;;;;;;;57.80;45.00;;;;;7.37;27.69;101109.59;6277250;27;100005;-67
2022/03/21 01:29:01;;;;;;;;;58.00;46.00;;;;;7.38;27.76;101113.94;6309779;27;96930;-67
2022/03/21 01:32:05;;;;;;;;;59.25;46.00;;;;;7.34;28.04;101106.34;6294626;27;98290;-67
2022/03/21 01:35:09;;;;;;;;;61.00;46.00;;;;;7.28;28.21;101109.63;6293982;27;97118;-67
2022/03/21 01:38:14;;;;;;;;;61.20;46.80;;;;;7.21;27.92;101104.00;6314412;27;97588;-67
2022/03/21 01:41:18;;;;;;;;;56.00;45.00;;;;;7.23;28.00;101114.59;6296763;27;98354;-67
2022/03/21 01:44:21;;;;;;;;;62.00;46.00;;;;;7.22;28.12;101110.22;6303639;27;97562;-67
2022/03/21 01:47:26;;;;;;;;;60.40;46.00;;;;;7.15;28.07;101095.69;6297462;27;96673;-66
2022/03/21 01:50:29;;;;;;;;;61.00;46.00;;;;;7.16;28.12;101116.16;6285519;27;97445;-68
2022/03/21 01:56:56;;;;;;;;;57.00;44.60;;;;;7.03;28.27;101100.38;6314536;27;96820;-68
2022/03/21 02:00:00;;;;;;;;;57.20;44.80;;;;;6.93;28.55;101103.09;6318972;27;96862;-69
2022/03/21 02:03:03;;;;;;;;;59.40;45.00;;;;;6.94;28.23;101098.53;6316580;27;96860;-68
2022/03/21 02:06:07;;;;;;;;;57.40;45.00;;;;;7.01;28.31;101097.00;6315191;27;97449;-68
2022/03/21 02:09:13;;;;;;;;;57.00;46.00;;;;;6.94;28.29;101096.72;6314719;27;96456;-66
2022/03/21 02:12:16;;;;;;;;;59.80;46.00;;;;;6.96;28.47;101108.16;6297943;27;99527;-67
2022/03/21 02:15:20;;;;;;;;;59.60;45.00;;;;;6.94;28.43;101104.75;6295347;27;98098;-69
2022/03/21 02:18:24;;;;;;;;;60.80;46.20;;;;;7.04;28.15;101106.59;6295110;27;97334;-67
2022/03/21 02:21:44;;;;;;;;;58.00;44.60;;;;;7.01;28.42;101109.56;6315415;27;96748;-68
2022/03/21 02:25:00;;;;;;;;;62.60;48.00;;;;;7.01;28.41;101112.25;6314957;27;97366;-68
2022/03/21 02:28:08;;;;;;;;;62.00;47.00;;;;;7.01;28.42;101109.56;6295181;27;97841;-68
2022/03/21 02:31:12;;;;;;;;;62.00;48.00;;;;;7.08;28.13;101099.94;6295278;27;97748;-67
2022/03/21 02:34:16;;;;;;;;;58.20;44.00;;;;;6.99;28.30;101101.66;6296137;27;98975;-67
2022/03/21 02:37:21;;;;;;;;;57.00;45.75;;;;;6.98;28.33;101113.38;6315045;27;96547;-67
2022/03/21 02:40:25;;;;;;;;;54.00;43.00;;;;;6.92;28.31;101114.81;6298574;27;97783;-67
2022/03/21 02:43:29;;;;;;;;;59.20;46.00;;;;;6.95;28.27;101113.66;6296218;27;99759;-68
2022/03/21 02:46:33;;;;;;;;;56.60;45.00;;;;;6.97;28.24;101109.84;6290794;27;97776;-67
2022/03/21 02:49:36;;;;;;;;;57.40;44.00;;;;;6.82;28.41;101102.41;6312515;27;97384;-67
2022/03/21 02:52:42;;;;;;;;;55.40;43.60;;;;;6.87;28.21;101121.59;6295257;27;99335;-68
2022/03/21 02:55:46;;;;;;;;;55.60;44.00;;;;;6.88;28.36;101117.91;6278481;27;100114;-67
2022/03/21 02:58:51;;;;;;;;;52.33;42.33;;;;;6.90;28.31;101113.25;6313777;27;97585;-68
2022/03/21 03:01:54;;;;;;;;;54.00;41.60;;;;;6.93;28.36;101112.97;6313564;27;97163;-67
2022/03/21 03:04:58;;;;;;;;;57.60;44.00;;;;;6.95;28.27;101119.88;6289054;27;97725;-67
2022/03/21 03:08:04;;;;;;;;;56.00;43.00;;;;;6.88;28.75;101126.81;6293015;27;97390;-68
2022/03/21 03:11:07;;;;;;;;;55.80;44.00;;;;;6.86;28.73;101126.09;6292699;27;98499;-67
2022/03/21 03:14:12;;;;;;;;;54.20;43.20;;;;;6.83;28.71;101107.63;6278546;27;98437;-68
2022/03/21 03:17:15;;;;;;;;;53.60;42.00;;;;;6.83;28.67;101118.34;6292473;27;97652;-67
2022/03/21 03:20:19;;;;;;;;;49.20;40.00;;;;;6.87;28.47;101113.53;6311281;27;96970;-67
2022/03/21 03:23:24;;;;;;;;;52.00;42.50;;;;;6.85;28.48;101118.19;6313316;27;96389;-67
2022/03/21 03:26:27;;;;;;;;;52.20;41.60;;;;;6.90;28.55;101114.09;6313654;27;97492;-67
2022/03/21 03:29:31;;;;;;;;;55.20;42.00;;;;;6.88;28.45;101115.25;6313820;27;97517;-67
2022/03/21 03:32:35;;;;;;;;;52.60;40.60;;;;;6.87;28.61;101118.91;6311372;27;98080;-67
2022/03/21 03:35:39;;;;;;;;;55.75;43.00;;;;;6.81;28.85;101117.63;6293524;27;97395;-67
2022/03/21 03:38:42;;;;;;;;;54.60;42.00;;;;;6.77;28.88;101118.91;6293654;27;97752;-67
2022/03/21 03:41:45;;;;;;;;;53.50;43.00;;;;;6.75;28.67;101115.53;6277676;27;98515;-67
2022/03/21 03:44:50;;;;;;;;;56.80;44.60;;;;;6.70;28.80;101115.09;6311339;27;97802;-67
2022/03/21 03:47:53;;;;;;;;;56.75;43.00;;;;;6.68;28.93;101125.13;6293556;27;97415;-67
2022/03/21 03:50:57;;;;;;;;;53.80;43.60;;;;;6.63;28.95;101127.41;6275724;27;97093;-67
2022/03/21 03:54:00;;;;;;;;;54.60;43.00;;;;;6.66;28.99;101116.38;6313210;27;97402;-67
2022/03/21 03:57:04;;;;;;;;;55.00;44.00;;;;;6.63;28.94;101116.69;6294337;27;97467;-67
2022/03/21 04:00:10;;;;;;;;;55.20;44.00;;;;;6.59;28.95;101126.00;6294603;27;97510;-66
2022/03/21 04:06:42;;;;;;;;;55.40;42.80;;;;;6.48;29.03;101132.34;6313368;27;97049;-67
2022/03/21 04:09:45;;;;;;;;;53.33;44.00;;;;;6.41;29.39;101133.03;6289034;27;96698;-68
2022/03/21 04:12:49;;;;;;;;;56.00;44.00;;;;;6.40;29.40;101126.00;6311464;27;97564;-67
2022/03/21 04:15:53;;;;;;;;;56.25;44.25;;;;;6.41;29.38;101124.97;6309096;27;96613;-67
2022/03/21 04:18:57;;;;;;;;;57.40;44.00;;;;;6.38;29.43;101117.25;6272540;27;99537;-67
2022/03/21 04:22:02;;;;;;;;;56.00;43.40;;;;;6.35;29.52;101131.75;6290817;27;99588;-66
2022/03/21 04:25:09;;;;;;;;;56.00;43.40;;;;;6.33;29.38;101127.53;6290140;27;97841;-66
2022/03/21 04:28:16;;;;;;;;;54.60;44.00;;;;;6.28;29.65;101125.28;6273443;27;99545;-66
2022/03/21 04:31:21;;;;;;;;;55.20;43.20;;;;;6.21;29.83;101129.47;6311368;27;97377;-66
2022/03/21 04:34:24;;;;;;;;;54.25;44.00;;;;;6.17;29.84;101135.25;6312186;27;96797;-67
2022/03/21 04:37:28;;;;;;;;;59.40;45.00;;;;;6.07;30.11;101133.41;6311934;27;97102;-67
2022/03/21 04:40:32;;;;;;;;;59.60;46.20;;;;;5.97;30.41;101132.53;6310519;27;97649;-67
2022/03/21 04:43:35;;;;;;;;;60.60;45.00;;;;;5.95;30.22;101137.22;6310459;27;96775;-66
2022/03/21 04:46:40;;;;;;;;;57.40;45.00;;;;;5.83;31.00;101132.03;6302848;27;97521;-67
2022/03/21 04:49:43;;;;;;;;;56.80;45.00;;;;;5.82;30.78;101133.03;6309059;27;97414;-67
2022/03/21 04:52:46;;;;;;;;;57.00;44.50;;;;;5.77;30.83;101132.59;6308195;27;98057;-68
2022/03/21 04:55:49;;;;;;;;;60.00;44.40;;;;;5.66;31.18;101133.56;6275887;27;96972;-67
2022/03/21 04:58:53;;;;;;;;;60.80;46.00;;;;;5.66;31.13;101134.41;6287314;27;99801;-68
2022/03/21 05:01:57;;;;;;;;;59.60;45.00;;;;;5.66;31.19;101141.59;6291738;27;96785;-67
2022/03/21 05:05:02;;;;;;;;;57.20;45.00;;;;;5.69;31.22;101149.34;6306802;27;97452;-70
2022/03/21 05:08:06;;;;;;;;;56.00;44.00;;;;;5.51;31.13;101122.38;6268372;27;97821;-69
2022/03/21 05:11:09;;;;;;;;;60.00;45.80;;;;;5.72;31.11;101146.38;6291397;27;97488;-69
2022/03/21 05:14:12;;;;;;;;;57.40;46.00;;;;;5.83;30.84;101161.50;6292958;27;98276;-70
2022/03/21 05:17:18;;;;;;;;;56.40;46.00;;;;;5.86;31.07;101159.41;6291373;27;98406;-69
2022/03/21 05:20:21;;;;;;;;;59.60;45.20;;;;;5.76;31.04;101145.16;6297559;27;97052;-70
2022/03/21 05:37:04;;;;;;;;;60.40;46.00;;;;;6.48;30.26;101159.13;6297819;27;97546;-68
2022/03/21 05:43:30;;;;;;;;;59.20;46.00;;;;;6.87;29.80;101165.34;6297238;27;98095;-68
2022/03/21 05:46:33;;;;;;;;;56.60;44.60;;;;;6.97;29.57;101170.69;6315109;27;96495;-69
2022/03/21 05:49:38;;;;;;;;;59.60;46.00;;;;;7.12;29.08;101180.00;6271714;27;98314;-69
2022/03/21 05:52:41;;;;;;;;;58.00;45.00;;;;;7.28;29.24;101176.72;6283054;27;99780;-68
2022/03/21 05:55:45;;;;;;;;;55.60;44.00;;;;;7.50;29.09;101175.50;6279208;27;98494;-69
2022/03/21 05:58:48;;;;;;;;;60.60;46.60;;;;;7.51;28.91;101156.59;6296867;27;97537;-70
2022/03/21 06:01:53;;;;;;;;;60.40;45.80;;;;;7.71;28.91;101186.91;6297816;27;97007;-69
2022/03/21 06:05:01;;;;;;;;;56.33;45.00;;;;;7.86;28.55;101180.03;6297440;27;98315;-68
2022/03/21 06:08:04;;;;;;;;;57.80;46.00;;;;;8.12;28.21;101181.03;6296098;27;96373;-69
2022/03/21 06:11:08;;;;;;;;;59.60;46.00;;;;;8.24;28.07;101190.59;6281184;27;98445;-68
2022/03/21 06:14:12;;;;;;;;;57.75;44.75;;;;;8.47;27.73;101185.66;6316785;27;96656;-68
2022/03/21 06:17:15;;;;;;;;;60.00;45.50;;;;;8.57;27.75;101185.56;6312274;27;97878;-69
2022/03/21 06:20:19;;;;;;;;;59.00;45.25;;;;;8.65;27.51;101183.81;6296242;27;97979;-69
2022/03/21 06:23:23;;;;;;;;;60.25;45.50;;;;;8.71;27.38;101171.59;6298883;27;97428;-70
2022/03/21 06:26:26;;;;;;;;;59.00;46.00;;;;;8.97;27.02;101183.25;6298081;27;100094;-68
2022/03/21 06:29:29;;;;;;;;;59.60;46.00;;;;;8.77;27.02;101162.06;6290478;27;97741;-70
2022/03/21 06:32:33;;;;;;;;;60.00;47.50;;;;;8.86;27.26;101180.81;6313961;27;96583;-70
2022/03/21 06:35:38;;;;;;;;;60.00;46.60;;;;;9.06;26.98;101190.41;6314827;27;97145;-70
2022/03/21 06:38:41;;;;;;;;;61.00;47.75;;;;;9.22;26.89;101178.06;6295350;27;96681;-70
2022/03/21 06:41:45;;;;;;;;;62.00;47.00;;;;;9.49;26.75;101156.38;6316278;27;98194;-71
2022/03/21 06:44:48;;;;;;;;;60.00;48.00;;;;;10.08;26.34;101184.25;6316821;27;97488;-70
2022/03/21 06:47:51;;;;;;;;;61.60;46.40;;;;;10.40;26.17;101187.97;6295884;27;98094;-69
2022/03/21 06:50:58;;;;;;;;;59.80;46.00;;;;;10.78;25.17;101188.38;6295086;27;97351;-70
2022/03/21 06:54:02;;;;;;;;;57.80;45.80;;;;;11.14;24.40;101184.31;6315954;27;96437;-70
2022/03/21 06:57:06;;;;;;;;;58.40;46.00;;;;;11.35;24.27;101181.09;6279375;27;100119;-70
2022/03/21 07:00:13;;;;;;;;;57.80;45.00;;;;;11.69;24.48;101192.50;6295949;27;98411;-69
2022/03/21 07:03:17;;;;;;;;;60.60;45.00;;;;;12.11;23.96;101188.69;6319638;27;97252;-70
2022/03/21 07:06:22;;;;;;;;;58.00;45.00;;;;;12.58;23.23;101186.72;6276287;27;98504;-69
2022/03/21 07:09:26;;;;;;;;;56.25;45.50;;;;;12.85;22.37;101171.00;6291616;27;96727;-70
2022/03/21 07:12:29;;;;;;;;;57.20;44.00;;;;;13.47;22.36;101182.47;6272160;27;99141;-70
2022/03/21 07:15:33;;;;;;;;;55.00;43.00;;;;;13.99;21.64;101179.69;6305531;27;96618;-70
2022/03/21 07:18:36;;;;;;;;;62.00;47.40;;;;;14.52;21.36;101183.09;6297216;27;97908;-71
2022/03/21 07:21:42;;;;;;;;;59.50;45.00;;;;;15.00;20.62;101176.09;6299246;27;97183;-70
2022/03/21 07:24:45;;;;;;;;;61.00;48.00;;;;;15.51;19.98;101182.16;6297782;27;96554;-70
2022/03/21 07:27:49;;;;;;;;;60.20;46.60;;;;;16.01;20.10;101181.03;6298487;27;97736;-69
2022/03/21 07:30:53;;;;;;;;;61.20;46.20;;;;;16.53;19.38;101187.72;6297035;27;96434;-70
2022/03/21 07:33:56;;;;;;;;;59.00;46.00;;;;;16.99;18.89;101176.97;6282742;27;97182;-69
2022/03/21 07:37:01;;;;;;;;;62.60;48.00;;;;;17.49;18.75;101175.50;6297717;27;96584;-69
2022/03/21 07:40:05;;;;;;;;;62.00;46.00;;;;;17.83;18.26;101183.47;6296635;27;98233;-69
2022/03/21 07:43:09;;;;;;;;;62.40;47.60;;;;;18.29;18.32;101185.19;6308203;27;96961;-69
2022/03/21 07:49:33;;;;;;;;;57.00;46.00;;;;;19.06;17.63;101175.97;6295750;27;97002;-71
2022/03/21 07:52:38;;;;;;;;;57.40;44.00;;;;;19.51;16.69;101187.59;6295835;27;97518;-69
2022/03/21 07:55:42;;;;;;;;;60.20;45.60;;;;;19.56;16.80;101202.28;6294510;27;96998;-69
2022/03/21 07:58:45;;;;;;;;;54.00;44.00;;;;;19.84;16.60;101188.94;6314058;27;97091;-72
2022/03/21 08:01:48;;;;;;;;;56.67;44.00;;;;;20.13;16.10;101190.13;6295599;27;97140;-70
2022/03/21 08:04:52;;;;;;;;;55.80;42.20;;;;;20.35;16.14;101181.44;6295391;27;98400;-70
2022/03/21 08:08:03;;;;;;;;;56.00;44.00;;;;;20.57;15.87;101169.78;6311996;27;96827;-71
2022/03/21 08:11:06;;;;;;;;;53.60;43.60;;;;;21.08;15.74;101179.34;6311908;27;96647;-70
2022/03/21 08:14:09;;;;;;;;;57.50;45.00;;;;;21.63;15.24;101171.69;6307029;27;96907;-69
2022/03/21 08:17:12;;;;;;;;;52.40;42.40;;;;;21.39;14.62;101172.75;6280770;27;97152;-71
2022/03/21 08:20:18;;;;;;;;;52.60;41.20;;;;;21.30;14.90;101174.19;6295333;27;97496;-71
2022/03/21 08:23:23;;;;;;;;;56.00;44.00;;;;;21.27;15.09;101125.25;6295177;27;97035;-70
2022/03/21 08:26:27;;;;;;;;;54.25;42.00;;;;;21.99;15.13;101165.94;6269424;27;99613;-69
2022/03/21 08:29:30;;;;;;;;;53.75;41.75;;;;;22.51;15.14;101156.84;6269173;27;97802;-68
2022/03/21 08:32:33;;;;;;;;;50.00;40.00;;;;;23.02;13.80;101156.72;6286089;27;96970;-70
2022/03/21 08:35:39;;;;;;;;;50.75;41.50;;;;;23.31;14.01;101157.50;6305872;27;97706;-69
2022/03/21 08:38:44;;;;;;;;;50.80;40.40;;;;;23.32;13.36;101151.72;6312868;27;97412;-69
2022/03/21 08:41:47;;;;;;;;;55.00;41.75;;;;;23.77;13.92;101153.53;6316615;27;97580;-70
2022/03/21 08:44:50;;;;;;;;;50.00;40.60;;;;;24.32;13.50;101153.47;6298967;27;97117;-70
2022/03/21 08:47:54;;;;;;;;;49.00;41.00;;;;;24.77;13.10;101146.81;6299083;27;97563;-69
2022/03/21 08:51:02;;;;;;;;;50.00;40.60;;;;;25.01;12.58;101149.00;6297657;27;98224;-69
2022/03/21 08:54:07;;;;;;;;;51.80;40.80;;;;;25.15;12.67;101143.03;6298764;27;97023;-69
2022/03/21 08:57:10;;;;;;;;;49.00;38.20;;;;;25.39;12.02;101145.16;6319261;27;96493;-70
2022/03/21 09:00:15;;;;;;;;;44.80;37.00;;;;;25.64;12.03;101139.03;6298952;27;100178;-70
2022/03/21 09:03:19;;;;;;;;;47.00;38.00;;;;;25.97;12.18;101137.81;6300171;27;98949;-70
2022/03/21 09:06:23;;;;;;;;;53.00;42.80;;;;;26.33;11.76;101133.31;6318927;27;97234;-70
2022/03/21 09:09:27;;;;;;;;;46.60;38.00;;;;;26.45;11.60;101139.41;6319301;27;97465;-70
2022/03/21 09:12:33;;;;;;;;;47.00;39.00;;;;;26.65;11.82;101131.16;6318116;27;97592;-70
2022/03/21 09:15:36;;;;;;;;;48.00;39.00;;;;;27.06;11.71;101137.63;6317610;27;97453;-71
2022/03/21 09:18:39;;;;;;;;;45.00;35.00;;;;;27.32;11.27;101130.09;6283829;27;100242;-70
2022/03/21 09:21:43;;;;;;;;;45.50;37.25;;;;;27.54;11.04;101136.22;6317936;27;96415;-70
2022/03/21 09:24:48;;;;;;;;;47.00;38.00;;;;;27.48;10.74;101122.63;6317363;27;97215;-71
2022/03/21 09:27:51;;;;;;;;;41.80;34.60;;;;;27.59;10.79;101127.06;6317661;27;97283;-70
2022/03/21 09:30:54;;;;;;;;;42.00;33.20;;;;;27.38;10.41;101122.63;6316555;27;96431;-70
2022/03/21 09:33:57;;;;;;;;;39.40;34.00;;;;;26.92;10.59;101125.44;6317513;27;96508;-71
2022/03/21 09:37:01;;;;;;;;;44.00;36.40;;;;;26.56;10.92;101124.50;6318719;27;97049;-70
2022/03/21 09:40:08;;;;;;;;;43.00;35.00;;;;;25.89;11.41;101105.16;6316668;27;97509;-71
2022/03/21 09:43:12;;;;;;;;;36.60;31.60;;;;;25.53;11.52;101120.69;6295594;27;97758;-70
2022/03/21 09:46:18;;;;;;;;;33.50;30.00;;;;;25.06;11.57;101115.09;6296050;27;96723;-70
2022/03/21 09:49:27;;;;;;;;;35.75;29.25;;;;;25.42;11.42;101110.66;6285060;27;96663;-70
2022/03/21 09:52:31;;;;;;;;;36.00;30.00;;;;;25.81;11.59;101108.41;6316025;27;97387;-71
2022/03/21 09:55:38;;;;;;;;;35.40;29.20;;;;;26.06;11.14;101105.78;6296995;27;98369;-70
2022/03/21 09:58:41;;;;;;;;;32.00;29.40;;;;;25.80;11.17;101099.28;6276623;27;98591;-71
2022/03/21 10:01:45;;;;;;;;;32.00;29.25;;;;;25.15;11.60;101107.97;6297738;27;97589;-71
2022/03/21 10:04:48;;;;;;;;;35.00;30.00;;;;;25.16;12.21;101100.53;6281195;27;98476;-70
2022/03/21 10:07:52;;;;;;;;;35.60;31.00;;;;;25.65;12.18;101099.25;6291239;27;98083;-71
2022/03/21 10:10:59;;;;;;;;;36.50;30.00;;;;;26.33;11.99;101090.97;6295766;27;97508;-71
2022/03/21 10:14:27;;;;;;;;;31.80;29.40;;;;;26.78;11.24;101093.00;6306168;27;97119;-71
2022/03/21 10:17:30;;;;;;;;;23.00;21.80;;;;;25.45;11.19;101075.06;6296420;27;99459;-71
2022/03/21 10:20:34;;;;;;;;;23.40;21.00;;;;;25.52;12.17;101072.03;6295076;27;99831;-71
2022/03/21 10:23:37;;;;;;;;;28.40;23.00;;;;;25.92;11.32;101042.97;6311862;27;97730;-72
2022/03/21 10:26:44;;;;;;;;;19.75;18.00;;;;;26.12;11.52;101059.63;6295061;27;98001;-71
2022/03/21 10:29:52;;;;;;;;;20.00;18.00;;;;;26.09;11.24;101051.91;6294886;27;97678;-71
2022/03/21 10:32:58;;;;;;;;;21.00;18.00;;;;;25.81;11.26;101067.81;6296686;27;97272;-71
2022/03/21 10:36:05;;;;;;;;;18.00;15.00;;;;;25.86;11.39;101059.53;6314047;27;97492;-71
2022/03/21 10:39:10;;;;;;;;;19.00;16.33;;;;;26.07;11.17;101052.16;6297294;27;97111;-71
2022/03/21 10:42:21;;;;;;;;;16.00;14.00;;;;;26.28;11.13;101050.31;6315113;27;96269;-71
2022/03/21 10:45:26;;;;;;;;;14.00;13.00;;;;;26.08;11.06;101044.69;6296461;27;99619;-71
2022/03/21 10:48:32;;;;;;;;;14.00;12.00;;;;;25.75;10.97;101048.72;6316550;27;97012;-71
2022/03/21 10:51:50;;;;;;;;;12.00;10.75;;;;;25.43;10.76;101035.81;6316431;27;97489;-71
2022/03/21 10:54:55;;;;;;;;;12.00;11.60;;;;;25.75;11.15;101041.28;6315289;27;97082;-71
2022/03/21 10:57:59;;;;;;;;;10.00;9.00;;;;;25.46;10.91;100996.59;6317174;27;98064;-71
2022/03/21 11:01:13;;;;;;;;;11.00;10.60;;;;;25.17;10.96;101034.00;6315782;27;96528;-70
2022/03/21 11:04:17;;;;;;;;;12.00;10.80;;;;;24.57;11.27;101032.41;6315393;27;97453;-71
2022/03/21 11:07:20;;;;;;;;;10.80;10.00;;;;;25.02;10.97;101022.88;6298093;27;97214;-71
2022/03/21 11:10:25;;;;;;;;;11.00;9.60;;;;;24.65;10.87;101033.84;6314486;27;96432;-70
2022/03/21 11:13:30;;;;;;;;;11.00;10.00;;;;;24.32;11.07;101028.56;6316237;27;96404;-70
2022/03/21 11:16:36;;;;;;;;;8.40;8.40;;;;;24.14;11.27;101025.03;6297902;27;97670;-70
2022/03/21 11:19:40;;;;;;;;;12.00;10.00;;;;;24.22;11.50;101025.72;6317392;27;96561;-71
2022/03/21 11:22:44;;;;;;;;;10.60;10.00;;;;;24.28;11.23;100992.44;6298594;27;97542;-72
2022/03/21 11:25:51;;;;;;;;;12.40;11.00;;;;;24.83;10.72;100989.28;6297063;27;98249;-71
2022/03/21 11:29:27;;;;;;;;;9.60;8.60;;;;;25.55;10.33;101004.44;6296430;27;98067;-70
2022/03/21 11:32:43;;;;;;;;;10.60;10.00;;;;;24.36;10.39;100991.13;6297428;27;96497;-70
2022/03/21 11:35:55;;;;;;;;;12.00;11.00;;;;;24.11;11.07;100999.94;6297876;27;96966;-71
2022/03/21 11:39:00;;;;;;;;;9.80;9.20;;;;;24.33;11.23;100986.97;6315433;27;96361;-71
2022/03/21 11:42:08;;;;;;;;;10.80;10.20;;;;;24.48;10.91;100989.84;6296153;27;96970;-71
2022/03/21 11:45:23;;;;;;;;;8.25;8.00;;;;;24.04;10.85;100994.63;6278388;27;97796;-71
2022/03/21 11:48:37;;;;;;;;;10.00;9.00;;;;;23.85;10.81;100993.31;6297836;27;97221;-71
2022/03/21 11:51:41;;;;;;;;;10.00;9.60;;;;;23.47;11.15;100980.47;6316906;27;96496;-71
2022/03/21 11:54:44;;;;;;;;;10.00;10.00;;;;;23.04;11.37;100980.38;6278198;27;97314;-70
2022/03/21 11:57:48;;;;;;;;;12.40;10.00;;;;;22.77;11.53;100974.75;6316807;27;96367;-70
2022/03/21 12:01:06;;;;;;;;;9.00;8.00;;;;;22.77;11.37;100966.53;6279427;27;98710;-69
2022/03/21 12:04:27;;;;;;;;;10.00;10.00;;;;;23.10;11.33;100969.22;6277942;27;97825;-70
2022/03/21 12:07:32;;;;;;;;;9.60;9.60;;;;;23.16;11.59;100959.94;6312101;27;96633;-70
2022/03/21 12:10:38;;;;;;;;;11.00;10.00;;;;;22.55;11.90;100954.56;6295660;27;99665;-69
2022/03/21 12:13:46;;;;;;;;;11.25;11.00;;;;;22.77;12.36;100955.50;6312491;27;96633;-69
2022/03/21 12:17:38;;;;;;;;;13.00;11.50;;;;;23.48;11.85;100949.09;6314522;27;96818;-71
2022/03/21 12:20:46;;;;;;;;;11.00;9.00;;;;;23.93;11.11;100923.16;6311541;27;97550;-70
2022/03/21 12:24:14;;;;;;;;;11.60;10.00;;;;;23.80;10.67;100948.38;6296521;27;96492;-70
2022/03/21 12:27:30;;;;;;;;;8.60;8.60;;;;;23.94;11.41;100924.81;6254006;27;98823;-71
2022/03/21 12:30:39;;;;;;;;;9.75;9.00;;;;;23.81;10.89;100934.31;6270097;27;99555;-69
2022/03/21 12:33:43;;;;;;;;;10.00;9.00;;;;;23.42;11.06;100938.22;6254595;27;100015;-70
2022/03/21 12:36:47;;;;;;;;;10.00;10.00;;;;;23.14;11.36;100926.31;6298196;27;96664;-70
2022/03/21 12:39:50;;;;;;;;;8.00;8.00;;;;;23.01;11.23;100918.47;6295044;27;96738;-69
2022/03/21 12:42:57;;;;;;;;;10.00;9.00;;;;;22.90;10.70;100919.41;6314436;27;96957;-69
2022/03/21 12:46:20;;;;;;;;;9.00;8.00;;;;;22.31;11.28;100916.25;6309207;27;96425;-70
2022/03/21 12:49:25;;;;;;;;;7.75;7.00;;;;;21.62;11.29;100911.94;6313474;27;97183;-71
2022/03/21 12:52:29;;;;;;;;;10.40;9.00;;;;;21.55;12.64;100900.31;6296838;27;96645;-70
2022/03/21 12:55:33;;;;;;;;;13.00;10.00;;;;;21.61;12.09;100905.63;6297616;27;97491;-70
2022/03/21 12:58:37;;;;;;;;;10.00;9.60;;;;;21.62;12.15;100876.25;6295601;27;96891;-70
2022/03/21 13:01:43;;;;;;;;;10.00;8.00;;;;;22.24;11.82;100907.34;6270229;27;99613;-70
2022/03/21 13:11:45;;;;;;;;;11.60;10.40;;;;;21.41;12.54;100888.75;6274445;27;97946;-70
2022/03/21 13:14:48;;;;;;;;;13.00;12.00;;;;;21.08;12.45;100888.59;6314145;27;96461;-70
2022/03/21 13:17:57;;;;;;;;;15.00;13.60;;;;;21.28;12.62;100889.06;6278468;27;97407;-71
2022/03/21 13:21:05;;;;;;;;;18.00;14.50;;;;;21.35;12.60;100872.47;6278870;27;99914;-70
2022/03/21 13:24:08;;;;;;;;;16.00;15.00;;;;;21.60;12.06;100875.66;6294261;27;97586;-70
2022/03/21 13:27:15;;;;;;;;;13.00;12.00;;;;;20.76;12.35;100879.97;6316644;27;96534;-70
2022/03/21 13:30:19;;;;;;;;;15.60;13.60;;;;;20.88;12.98;100877.19;6298239;27;97555;-70
2022/03/21 13:33:23;;;;;;;;;13.00;13.00;;;;;21.53;13.10;100864.03;6299450;27;96891;-70
2022/03/21 13:36:27;;;;;;;;;15.00;13.00;;;;;22.19;12.02;100876.19;6319713;27;96997;-69
2022/03/21 13:39:32;;;;;;;;;14.00;12.40;;;;;22.00;12.08;100870.09;6316788;27;96617;-69
2022/03/21 13:42:36;;;;;;;;;11.00;10.60;;;;;22.31;11.90;100875.03;6317289;27;98042;-70
2022/03/21 13:45:41;;;;;;;;;15.00;12.60;;;;;22.76;11.74;100868.59;6318245;27;97480;-70
2022/03/21 13:48:44;;;;;;;;;10.33;10.33;;;;;23.15;11.39;100869.38;6300387;27;98882;-71
2022/03/21 13:51:51;;;;;;;;;11.00;10.00;;;;;23.33;11.08;100867.13;6315746;27;97475;-69
2022/03/21 13:54:57;;;;;;;;;10.00;9.75;;;;;23.07;11.11;100864.31;6298213;27;99452;-69
2022/03/21 13:58:04;;;;;;;;;10.67;10.67;;;;;22.50;11.08;100859.09;6298245;27;96831;-69
2022/03/21 14:01:26;;;;;;;;;10.80;9.80;;;;;22.22;11.55;100854.56;6297621;27;96931;-69
2022/03/21 14:04:33;;;;;;;;;11.00;10.00;;;;;21.92;11.76;100851.28;6319653;27;96492;-70
2022/03/21 14:07:38;;;;;;;;;13.00;11.00;;;;;21.66;11.29;100852.72;6317803;27;96351;-70
2022/03/21 14:10:43;;;;;;;;;12.00;9.00;;;;;21.31;11.36;100849.31;6318461;27;97667;-70
2022/03/21 14:13:48;;;;;;;;;10.60;9.00;;;;;21.10;11.28;100798.69;6281484;27;98781;-71
2022/03/21 14:16:51;;;;;;;;;7.00;6.00;;;;;21.59;10.92;100843.81;6312973;27;97799;-70
2022/03/21 14:19:54;;;;;;;;;13.00;10.00;;;;;21.51;11.25;100828.56;6298209;27;97590;-70
2022/03/21 14:22:59;;;;;;;;;11.00;10.00;;;;;21.45;11.47;100840.53;6299197;27;96957;-70
2022/03/21 14:29:24;;;;;;;;;9.40;8.00;;;;;21.18;11.50;100801.06;6311061;27;97734;-71
2022/03/21 14:32:27;;;;;;;;;10.00;8.50;;;;;21.46;11.67;100835.88;6296962;27;98766;-69
2022/03/21 14:35:30;;;;;;;;;8.80;8.00;;;;;21.11;11.73;100819.56;6315467;27;96539;-69
2022/03/21 14:38:36;;;;;;;;;11.00;10.80;;;;;21.02;12.56;100827.31;6314382;27;96999;-69
2022/03/21 14:41:44;;;;;;;;;11.60;11.00;;;;;20.80;12.30;100809.03;6316156;27;97480;-70
2022/03/21 14:44:48;;;;;;;;;10.00;9.00;;;;;21.11;12.17;100819.56;6295815;27;96996;-69
2022/03/21 14:47:51;;;;;;;;;12.40;9.40;;;;;21.14;12.36;100811.69;6312669;27;96620;-70